sensor_id;sensor_type;location;lat;lon;timestamp;P1;durP1;ratioP1;P2;durP2;ratioP2
55493;SDS011;41355;50.390;19.096;2022-11-20T00:00:56;198.68;;;50.75;;
55493;SDS011;41355;50.390;19.096;2022-11-20T00:03:22;225.23;;;49.60;;
55493;SDS011;41355;50.390;19.096;2022-11-20T00:05:48;91.80;;;26.27;;
55493;SDS011;41355;50.390;19.096;2022-11-20T00:08:14;158.27;;;40.05;;
55493;SDS011;41355;50.390;19.096;2022-11-20T00:10:40;141.60;;;37.25;;
55493;SDS011;41355;50.390;19.096;2022-11-20T00:13:07;106.97;;;32.58;;
55493;SDS011;41355;50.390;19.096;2022-11-20T00:15:33;70.32;;;23.95;;
55493;SDS011;41355;50.390;19.096;2022-11-20T00:17:59;64.82;;;24.95;;
55493;SDS011;41355;50.390;19.096;2022-11-20T00:20:25;191.65;;;47.15;;
55493;SDS011;41355;50.390;19.096;2022-11-20T00:22:51;197.50;;;46.20;;
55493;SDS011;41355;50.390;19.096;2022-11-20T00:25:18;187.88;;;45.67;;
55493;SDS011;41355;50.390;19.096;2022-11-20T00:27:44;104.70;;;32.38;;
55493;SDS011;41355;50.390;19.096;2022-11-20T00:30:10;177.10;;;46.88;;
55493;SDS011;41355;50.390;19.096;2022-11-20T00:32:36;134.57;;;35.58;;
55493;SDS011;41355;50.390;19.096;2022-11-20T00:35:02;193.88;;;49.83;;
55493;SDS011;41355;50.390;19.096;2022-11-20T00:37:28;193.32;;;47.03;;
55493;SDS011;41355;50.390;19.096;2022-11-20T00:39:55;200.35;;;47.78;;
55493;SDS011;41355;50.390;19.096;2022-11-20T00:42:21;227.05;;;53.25;;
55493;SDS011;41355;50.390;19.096;2022-11-20T00:44:47;209.82;;;51.42;;
55493;SDS011;41355;50.390;19.096;2022-11-20T00:47:13;259.30;;;58.85;;
55493;SDS011;41355;50.390;19.096;2022-11-20T00:49:39;226.77;;;53.05;;
55493;SDS011;41355;50.390;19.096;2022-11-20T00:52:05;214.65;;;53.65;;
55493;SDS011;41355;50.390;19.096;2022-11-20T00:54:31;171.88;;;42.13;;
55493;SDS011;41355;50.390;19.096;2022-11-20T00:56:57;198.25;;;50.95;;
55493;SDS011;41355;50.390;19.096;2022-11-20T00:59:23;255.65;;;63.08;;
55493;SDS011;41355;50.390;19.096;2022-11-20T01:01:49;219.02;;;55.78;;
55493;SDS011;41355;50.390;19.096;2022-11-20T01:04:15;237.57;;;60.15;;
55493;SDS011;41355;50.390;19.096;2022-11-20T01:06:41;211.68;;;50.60;;
55493;SDS011;41355;50.390;19.096;2022-11-20T01:09:10;221.32;;;53.78;;
55493;SDS011;41355;50.390;19.096;2022-11-20T01:11:37;141.52;;;44.30;;
55493;SDS011;41355;50.390;19.096;2022-11-20T01:14:05;201.15;;;51.25;;
55493;SDS011;41355;50.390;19.096;2022-11-20T01:16:32;194.38;;;47.20;;
55493;SDS011;41355;50.390;19.096;2022-11-20T01:19:00;209.85;;;51.08;;
55493;SDS011;41355;50.390;19.096;2022-11-20T01:21:27;190.02;;;48.83;;
55493;SDS011;41355;50.390;19.096;2022-11-20T01:23:54;197.43;;;48.28;;
55493;SDS011;41355;50.390;19.096;2022-11-20T01:26:21;168.27;;;43.83;;
55493;SDS011;41355;50.390;19.096;2022-11-20T01:28:48;196.18;;;49.65;;
55493;SDS011;41355;50.390;19.096;2022-11-20T01:31:15;198.25;;;49.75;;
55493;SDS011;41355;50.390;19.096;2022-11-20T01:33:41;220.57;;;50.88;;
55493;SDS011;41355;50.390;19.096;2022-11-20T01:36:08;140.45;;;39.10;;
55493;SDS011;41355;50.390;19.096;2022-11-20T01:38:35;179.35;;;42.83;;
55493;SDS011;41355;50.390;19.096;2022-11-20T01:41:01;151.45;;;37.83;;
55493;SDS011;41355;50.390;19.096;2022-11-20T01:43:27;124.03;;;32.25;;
55493;SDS011;41355;50.390;19.096;2022-11-20T01:46:12;197.65;;;47.40;;
55493;SDS011;41355;50.390;19.096;2022-11-20T01:51:18;99.95;;;28.30;;
55493;SDS011;41355;50.390;19.096;2022-11-20T01:53:44;208.43;;;50.20;;
55493;SDS011;41355;50.390;19.096;2022-11-20T01:56:11;210.70;;;47.70;;
55493;SDS011;41355;50.390;19.096;2022-11-20T01:58:40;194.65;;;49.42;;
55493;SDS011;41355;50.390;19.096;2022-11-20T02:01:07;229.27;;;52.03;;
55493;SDS011;41355;50.390;19.096;2022-11-20T02:03:33;210.77;;;51.90;;
55493;SDS011;41355;50.390;19.096;2022-11-20T02:06:02;208.50;;;52.47;;
55493;SDS011;41355;50.390;19.096;2022-11-20T02:08:29;225.05;;;56.28;;
55493;SDS011;41355;50.390;19.096;2022-11-20T02:10:56;230.30;;;53.92;;
55493;SDS011;41355;50.390;19.096;2022-11-20T02:13:22;217.00;;;55.05;;
55493;SDS011;41355;50.390;19.096;2022-11-20T02:16:08;217.88;;;53.15;;
55493;SDS011;41355;50.390;19.096;2022-11-20T02:18:35;253.75;;;55.22;;
55493;SDS011;41355;50.390;19.096;2022-11-20T02:21:13;218.68;;;53.80;;
55493;SDS011;41355;50.390;19.096;2022-11-20T02:26:25;222.65;;;49.55;;
55493;SDS011;41355;50.390;19.096;2022-11-20T02:28:52;221.73;;;53.00;;
55493;SDS011;41355;50.390;19.096;2022-11-20T02:31:18;240.70;;;55.13;;
55493;SDS011;41355;50.390;19.096;2022-11-20T02:33:44;252.07;;;58.40;;
55493;SDS011;41355;50.390;19.096;2022-11-20T02:36:11;257.38;;;59.20;;
55493;SDS011;41355;50.390;19.096;2022-11-20T02:38:39;266.65;;;57.90;;
55493;SDS011;41355;50.390;19.096;2022-11-20T02:41:05;257.52;;;54.65;;
55493;SDS011;41355;50.390;19.096;2022-11-20T02:43:31;276.75;;;59.33;;
55493;SDS011;41355;50.390;19.096;2022-11-20T02:45:57;258.20;;;55.55;;
55493;SDS011;41355;50.390;19.096;2022-11-20T02:48:23;222.25;;;52.55;;
55493;SDS011;41355;50.390;19.096;2022-11-20T02:50:49;190.05;;;50.10;;
55493;SDS011;41355;50.390;19.096;2022-11-20T02:53:15;159.73;;;43.75;;
55493;SDS011;41355;50.390;19.096;2022-11-20T02:55:41;180.63;;;49.95;;
55493;SDS011;41355;50.390;19.096;2022-11-20T02:58:07;235.65;;;52.85;;
55493;SDS011;41355;50.390;19.096;2022-11-20T03:00:33;201.45;;;50.03;;
55493;SDS011;41355;50.390;19.096;2022-11-20T03:03:00;211.15;;;52.50;;
55493;SDS011;41355;50.390;19.096;2022-11-20T03:05:26;243.35;;;54.85;;
55493;SDS011;41355;50.390;19.096;2022-11-20T03:07:52;215.48;;;51.80;;
55493;SDS011;41355;50.390;19.096;2022-11-20T03:10:18;236.65;;;58.33;;
55493;SDS011;41355;50.390;19.096;2022-11-20T03:12:44;198.48;;;52.05;;
55493;SDS011;41355;50.390;19.096;2022-11-20T03:15:10;205.70;;;50.17;;
55493;SDS011;41355;50.390;19.096;2022-11-20T03:17:37;258.75;;;59.20;;
55493;SDS011;41355;50.390;19.096;2022-11-20T03:20:03;229.45;;;56.00;;
55493;SDS011;41355;50.390;19.096;2022-11-20T03:22:29;218.20;;;51.70;;
55493;SDS011;41355;50.390;19.096;2022-11-20T03:24:55;193.00;;;48.92;;
55493;SDS011;41355;50.390;19.096;2022-11-20T03:27:21;276.00;;;65.47;;
55493;SDS011;41355;50.390;19.096;2022-11-20T03:29:47;229.38;;;50.88;;
55493;SDS011;41355;50.390;19.096;2022-11-20T03:32:13;210.55;;;50.42;;
55493;SDS011;41355;50.390;19.096;2022-11-20T03:34:39;225.85;;;51.22;;
55493;SDS011;41355;50.390;19.096;2022-11-20T03:37:05;223.13;;;50.83;;
55493;SDS011;41355;50.390;19.096;2022-11-20T03:39:31;188.20;;;46.42;;
55493;SDS011;41355;50.390;19.096;2022-11-20T03:41:57;162.82;;;41.30;;
55493;SDS011;41355;50.390;19.096;2022-11-20T03:44:23;210.90;;;52.00;;
55493;SDS011;41355;50.390;19.096;2022-11-20T03:46:49;211.07;;;48.60;;
55493;SDS011;41355;50.390;19.096;2022-11-20T03:49:16;177.10;;;42.80;;
55493;SDS011;41355;50.390;19.096;2022-11-20T03:51:42;203.45;;;47.75;;
55493;SDS011;41355;50.390;19.096;2022-11-20T03:54:08;187.75;;;44.13;;
55493;SDS011;41355;50.390;19.096;2022-11-20T03:56:35;193.57;;;47.13;;
55493;SDS011;41355;50.390;19.096;2022-11-20T03:59:02;164.98;;;46.03;;
55493;SDS011;41355;50.390;19.096;2022-11-20T04:01:29;196.45;;;45.95;;
55493;SDS011;41355;50.390;19.096;2022-11-20T04:03:56;196.80;;;49.08;;
55493;SDS011;41355;50.390;19.096;2022-11-20T04:06:23;227.20;;;52.15;;
55493;SDS011;41355;50.390;19.096;2022-11-20T04:08:49;220.48;;;51.97;;
55493;SDS011;41355;50.390;19.096;2022-11-20T04:11:19;236.98;;;52.67;;
55493;SDS011;41355;50.390;19.096;2022-11-20T04:13:46;219.02;;;50.08;;
55493;SDS011;41355;50.390;19.096;2022-11-20T04:16:13;153.10;;;38.25;;
55493;SDS011;41355;50.390;19.096;2022-11-20T04:18:39;192.13;;;47.75;;
55493;SDS011;41355;50.390;19.096;2022-11-20T04:21:05;222.45;;;48.38;;
55493;SDS011;41355;50.390;19.096;2022-11-20T04:23:32;83.10;;;27.58;;
55493;SDS011;41355;50.390;19.096;2022-11-20T04:26:02;149.18;;;44.80;;
55493;SDS011;41355;50.390;19.096;2022-11-20T04:28:28;139.15;;;37.40;;
55493;SDS011;41355;50.390;19.096;2022-11-20T04:30:54;93.85;;;29.73;;
55493;SDS011;41355;50.390;19.096;2022-11-20T04:33:20;117.20;;;34.83;;
55493;SDS011;41355;50.390;19.096;2022-11-20T04:35:46;151.98;;;38.22;;
55493;SDS011;41355;50.390;19.096;2022-11-20T04:38:13;185.70;;;44.35;;
55493;SDS011;41355;50.390;19.096;2022-11-20T04:40:39;159.25;;;42.47;;
55493;SDS011;41355;50.390;19.096;2022-11-20T04:43:05;179.68;;;46.13;;
55493;SDS011;41355;50.390;19.096;2022-11-20T04:45:31;209.43;;;49.28;;
55493;SDS011;41355;50.390;19.096;2022-11-20T04:47:57;206.50;;;47.75;;
55493;SDS011;41355;50.390;19.096;2022-11-20T04:50:23;167.52;;;43.72;;
55493;SDS011;41355;50.390;19.096;2022-11-20T04:52:49;148.45;;;37.22;;
55493;SDS011;41355;50.390;19.096;2022-11-20T04:55:15;93.00;;;37.10;;
55493;SDS011;41355;50.390;19.096;2022-11-20T04:57:41;91.25;;;26.70;;
55493;SDS011;41355;50.390;19.096;2022-11-20T05:00:07;138.25;;;39.30;;
55493;SDS011;41355;50.390;19.096;2022-11-20T05:02:34;171.05;;;43.17;;
55493;SDS011;41355;50.390;19.096;2022-11-20T05:05:00;127.18;;;36.95;;
55493;SDS011;41355;50.390;19.096;2022-11-20T05:07:25;97.57;;;30.70;;
55493;SDS011;41355;50.390;19.096;2022-11-20T05:09:51;243.80;;;57.47;;
55493;SDS011;41355;50.390;19.096;2022-11-20T05:12:18;149.27;;;41.22;;
55493;SDS011;41355;50.390;19.096;2022-11-20T05:14:44;129.88;;;38.33;;
55493;SDS011;41355;50.390;19.096;2022-11-20T05:17:10;180.43;;;47.90;;
55493;SDS011;41355;50.390;19.096;2022-11-20T05:19:36;139.45;;;42.03;;
55493;SDS011;41355;50.390;19.096;2022-11-20T05:22:04;184.77;;;42.83;;
55493;SDS011;41355;50.390;19.096;2022-11-20T05:24:30;165.90;;;43.85;;
55493;SDS011;41355;50.390;19.096;2022-11-20T05:26:56;148.43;;;43.25;;
55493;SDS011;41355;50.390;19.096;2022-11-20T05:29:22;166.90;;;45.17;;
55493;SDS011;41355;50.390;19.096;2022-11-20T05:31:48;175.50;;;45.55;;
55493;SDS011;41355;50.390;19.096;2022-11-20T05:34:14;132.40;;;36.65;;
55493;SDS011;41355;50.390;19.096;2022-11-20T05:36:40;107.22;;;33.90;;
55493;SDS011;41355;50.390;19.096;2022-11-20T05:39:06;104.25;;;34.03;;
55493;SDS011;41355;50.390;19.096;2022-11-20T05:41:32;207.48;;;50.65;;
55493;SDS011;41355;50.390;19.096;2022-11-20T05:43:58;172.38;;;45.65;;
55493;SDS011;41355;50.390;19.096;2022-11-20T05:46:24;172.60;;;50.00;;
55493;SDS011;41355;50.390;19.096;2022-11-20T05:48:50;96.63;;;32.95;;
55493;SDS011;41355;50.390;19.096;2022-11-20T05:51:17;95.18;;;28.83;;
55493;SDS011;41355;50.390;19.096;2022-11-20T05:53:44;140.93;;;39.97;;
55493;SDS011;41355;50.390;19.096;2022-11-20T05:56:11;142.80;;;39.72;;
55493;SDS011;41355;50.390;19.096;2022-11-20T05:58:38;179.30;;;41.05;;
55493;SDS011;41355;50.390;19.096;2022-11-20T06:01:05;173.32;;;44.22;;
55493;SDS011;41355;50.390;19.096;2022-11-20T06:03:31;162.63;;;42.20;;
55493;SDS011;41355;50.390;19.096;2022-11-20T06:05:58;248.77;;;59.63;;
55493;SDS011;41355;50.390;19.096;2022-11-20T06:08:24;166.52;;;42.78;;
55493;SDS011;41355;50.390;19.096;2022-11-20T06:10:50;166.52;;;46.17;;
55493;SDS011;41355;50.390;19.096;2022-11-20T06:13:16;184.77;;;47.17;;
55493;SDS011;41355;50.390;19.096;2022-11-20T06:15:47;259.38;;;62.22;;
55493;SDS011;41355;50.390;19.096;2022-11-20T06:18:13;163.15;;;45.03;;
55493;SDS011;41355;50.390;19.096;2022-11-20T06:20:39;221.30;;;52.38;;
55493;SDS011;41355;50.390;19.096;2022-11-20T06:23:05;140.65;;;38.67;;
55493;SDS011;41355;50.390;19.096;2022-11-20T06:25:31;161.32;;;41.95;;
55493;SDS011;41355;50.390;19.096;2022-11-20T06:27:57;168.77;;;41.92;;
55493;SDS011;41355;50.390;19.096;2022-11-20T06:30:23;234.98;;;50.30;;
55493;SDS011;41355;50.390;19.096;2022-11-20T06:32:49;269.52;;;56.97;;
55493;SDS011;41355;50.390;19.096;2022-11-20T06:35:15;287.83;;;64.80;;
55493;SDS011;41355;50.390;19.096;2022-11-20T06:37:42;352.73;;;83.13;;
55493;SDS011;41355;50.390;19.096;2022-11-20T06:40:08;296.52;;;70.25;;
55493;SDS011;41355;50.390;19.096;2022-11-20T06:42:34;434.30;;;94.13;;
55493;SDS011;41355;50.390;19.096;2022-11-20T06:45:00;386.30;;;93.03;;
55493;SDS011;41355;50.390;19.096;2022-11-20T06:47:26;363.20;;;89.53;;
55493;SDS011;41355;50.390;19.096;2022-11-20T06:49:52;282.95;;;62.85;;
55493;SDS011;41355;50.390;19.096;2022-11-20T06:52:18;212.68;;;53.13;;
55493;SDS011;41355;50.390;19.096;2022-11-20T06:54:44;216.48;;;50.88;;
55493;SDS011;41355;50.390;19.096;2022-11-20T06:57:10;236.88;;;56.15;;
55493;SDS011;41355;50.390;19.096;2022-11-20T06:59:36;211.10;;;54.60;;
55493;SDS011;41355;50.390;19.096;2022-11-20T07:02:02;191.05;;;50.03;;
55493;SDS011;41355;50.390;19.096;2022-11-20T07:04:28;190.10;;;48.08;;
55493;SDS011;41355;50.390;19.096;2022-11-20T07:06:54;219.60;;;51.92;;
55493;SDS011;41355;50.390;19.096;2022-11-20T07:09:20;207.88;;;49.15;;
55493;SDS011;41355;50.390;19.096;2022-11-20T07:11:46;202.82;;;51.53;;
55493;SDS011;41355;50.390;19.096;2022-11-20T07:14:12;178.38;;;50.15;;
55493;SDS011;41355;50.390;19.096;2022-11-20T07:16:39;218.95;;;49.85;;
55493;SDS011;41355;50.390;19.096;2022-11-20T07:19:05;202.57;;;51.47;;
55493;SDS011;41355;50.390;19.096;2022-11-20T07:21:30;224.52;;;55.50;;
55493;SDS011;41355;50.390;19.096;2022-11-20T07:23:57;260.17;;;54.78;;
55493;SDS011;41355;50.390;19.096;2022-11-20T07:26:23;245.85;;;58.00;;
55493;SDS011;41355;50.390;19.096;2022-11-20T07:28:49;236.35;;;54.95;;
55493;SDS011;41355;50.390;19.096;2022-11-20T07:31:15;261.13;;;63.65;;
55493;SDS011;41355;50.390;19.096;2022-11-20T07:33:41;261.10;;;66.50;;
55493;SDS011;41355;50.390;19.096;2022-11-20T07:36:07;262.55;;;61.42;;
55493;SDS011;41355;50.390;19.096;2022-11-20T07:38:33;308.23;;;72.60;;
55493;SDS011;41355;50.390;19.096;2022-11-20T07:40:59;394.60;;;90.38;;
55493;SDS011;41355;50.390;19.096;2022-11-20T07:43:28;296.83;;;65.18;;
55493;SDS011;41355;50.390;19.096;2022-11-20T07:45:55;277.35;;;65.57;;
55493;SDS011;41355;50.390;19.096;2022-11-20T07:48:21;287.38;;;73.20;;
55493;SDS011;41355;50.390;19.096;2022-11-20T07:50:47;312.60;;;69.63;;
55493;SDS011;41355;50.390;19.096;2022-11-20T07:53:13;312.63;;;68.47;;
55493;SDS011;41355;50.390;19.096;2022-11-20T07:55:45;266.60;;;61.08;;
55493;SDS011;41355;50.390;19.096;2022-11-20T07:58:11;282.15;;;57.88;;
55493;SDS011;41355;50.390;19.096;2022-11-20T08:00:38;395.58;;;113.78;;
55493;SDS011;41355;50.390;19.096;2022-11-20T08:03:05;357.70;;;80.30;;
55493;SDS011;41355;50.390;19.096;2022-11-20T08:05:31;453.65;;;115.22;;
55493;SDS011;41355;50.390;19.096;2022-11-20T08:07:57;446.10;;;112.80;;
55493;SDS011;41355;50.390;19.096;2022-11-20T08:10:26;405.27;;;97.28;;
55493;SDS011;41355;50.390;19.096;2022-11-20T08:12:52;391.30;;;98.65;;
55493;SDS011;41355;50.390;19.096;2022-11-20T08:15:47;389.38;;;92.43;;
55493;SDS011;41355;50.390;19.096;2022-11-20T08:18:13;324.15;;;71.28;;
55493;SDS011;41355;50.390;19.096;2022-11-20T08:20:42;288.52;;;68.00;;
55493;SDS011;41355;50.390;19.096;2022-11-20T08:23:08;297.17;;;71.75;;
55493;SDS011;41355;50.390;19.096;2022-11-20T08:25:35;265.40;;;62.88;;
55493;SDS011;41355;50.390;19.096;2022-11-20T08:28:06;303.20;;;73.43;;
55493;SDS011;41355;50.390;19.096;2022-11-20T08:30:35;355.70;;;72.20;;
55493;SDS011;41355;50.390;19.096;2022-11-20T08:33:03;353.42;;;91.13;;
55493;SDS011;41355;50.390;19.096;2022-11-20T08:35:32;334.17;;;75.10;;
55493;SDS011;41355;50.390;19.096;2022-11-20T08:37:58;390.85;;;96.03;;
55493;SDS011;41355;50.390;19.096;2022-11-20T08:40:24;275.55;;;62.15;;
55493;SDS011;41355;50.390;19.096;2022-11-20T08:42:51;294.50;;;69.40;;
55493;SDS011;41355;50.390;19.096;2022-11-20T08:45:17;269.65;;;66.25;;
55493;SDS011;41355;50.390;19.096;2022-11-20T08:47:44;279.35;;;68.55;;
55493;SDS011;41355;50.390;19.096;2022-11-20T08:50:11;285.38;;;72.47;;
55493;SDS011;41355;50.390;19.096;2022-11-20T08:52:37;308.42;;;73.43;;
55493;SDS011;41355;50.390;19.096;2022-11-20T08:55:04;302.88;;;72.82;;
55493;SDS011;41355;50.390;19.096;2022-11-20T08:57:34;264.25;;;67.60;;
55493;SDS011;41355;50.390;19.096;2022-11-20T09:00:00;261.90;;;61.55;;
55493;SDS011;41355;50.390;19.096;2022-11-20T09:02:26;255.25;;;59.05;;
55493;SDS011;41355;50.390;19.096;2022-11-20T09:04:52;214.65;;;56.92;;
55493;SDS011;41355;50.390;19.096;2022-11-20T09:07:19;167.30;;;46.17;;
55493;SDS011;41355;50.390;19.096;2022-11-20T09:09:45;224.57;;;56.92;;
55493;SDS011;41355;50.390;19.096;2022-11-20T09:12:11;201.02;;;52.40;;
55493;SDS011;41355;50.390;19.096;2022-11-20T09:14:37;178.70;;;54.55;;
55493;SDS011;41355;50.390;19.096;2022-11-20T09:17:04;212.18;;;56.58;;
55493;SDS011;41355;50.390;19.096;2022-11-20T09:37:36;114.25;;;33.95;;
55493;SDS011;41355;50.390;19.096;2022-11-20T09:40:02;194.00;;;51.83;;
55493;SDS011;41355;50.390;19.096;2022-11-20T09:45:17;201.55;;;57.70;;
55493;SDS011;41355;50.390;19.096;2022-11-20T09:47:44;90.80;;;28.17;;
55493;SDS011;41355;50.390;19.096;2022-11-20T09:52:44;59.40;;;23.73;;
55493;SDS011;41355;50.390;19.096;2022-11-20T09:55:12;82.40;;;28.73;;
55493;SDS011;41355;50.390;19.096;2022-11-20T09:57:40;173.85;;;47.72;;
55493;SDS011;41355;50.390;19.096;2022-11-20T10:00:11;210.25;;;55.47;;
55493;SDS011;41355;50.390;19.096;2022-11-20T10:05:06;118.32;;;39.13;;
55493;SDS011;41355;50.390;19.096;2022-11-20T10:10:01;169.13;;;50.17;;
55493;SDS011;41355;50.390;19.096;2022-11-20T10:20:30;324.25;;;78.88;;
55493;SDS011;41355;50.390;19.096;2022-11-20T10:30:51;240.45;;;62.08;;
55493;SDS011;41355;50.390;19.096;2022-11-20T10:33:21;257.35;;;66.60;;
55493;SDS011;41355;50.390;19.096;2022-11-20T10:36:08;180.05;;;48.25;;
55493;SDS011;41355;50.390;19.096;2022-11-20T10:38:39;153.27;;;42.80;;
55493;SDS011;41355;50.390;19.096;2022-11-20T10:41:06;176.38;;;48.58;;
55493;SDS011;41355;50.390;19.096;2022-11-20T10:44:05;162.57;;;43.00;;
55493;SDS011;41355;50.390;19.096;2022-11-20T10:46:36;244.13;;;60.00;;
55493;SDS011;41355;50.390;19.096;2022-11-20T10:49:04;204.02;;;52.10;;
55493;SDS011;41355;50.390;19.096;2022-11-20T11:01:44;181.45;;;50.53;;
55493;SDS011;41355;50.390;19.096;2022-11-20T11:06:46;205.23;;;51.50;;
55493;SDS011;41355;50.390;19.096;2022-11-20T11:09:19;231.63;;;60.83;;
55493;SDS011;41355;50.390;19.096;2022-11-20T11:11:46;192.20;;;45.05;;
55493;SDS011;41355;50.390;19.096;2022-11-20T11:14:13;239.07;;;56.97;;
55493;SDS011;41355;50.390;19.096;2022-11-20T11:16:52;248.20;;;61.58;;
55493;SDS011;41355;50.390;19.096;2022-11-20T11:19:19;261.55;;;64.30;;
55493;SDS011;41355;50.390;19.096;2022-11-20T11:21:52;233.60;;;58.97;;
55493;SDS011;41355;50.390;19.096;2022-11-20T11:24:28;252.98;;;61.17;;
55493;SDS011;41355;50.390;19.096;2022-11-20T11:29:21;212.15;;;51.28;;
55493;SDS011;41355;50.390;19.096;2022-11-20T11:31:47;158.35;;;44.22;;
55493;SDS011;41355;50.390;19.096;2022-11-20T11:34:14;141.23;;;37.92;;
55493;SDS011;41355;50.390;19.096;2022-11-20T11:36:41;102.88;;;31.88;;
55493;SDS011;41355;50.390;19.096;2022-11-20T11:39:11;149.60;;;42.17;;
55493;SDS011;41355;50.390;19.096;2022-11-20T11:41:39;143.50;;;41.67;;
55493;SDS011;41355;50.390;19.096;2022-11-20T11:44:19;67.88;;;23.52;;
55493;SDS011;41355;50.390;19.096;2022-11-20T11:47:05;124.13;;;34.78;;
55493;SDS011;41355;50.390;19.096;2022-11-20T11:49:34;83.25;;;28.35;;
55493;SDS011;41355;50.390;19.096;2022-11-20T11:52:17;123.47;;;36.05;;
55493;SDS011;41355;50.390;19.096;2022-11-20T12:05:18;71.38;;;25.23;;
55493;SDS011;41355;50.390;19.096;2022-11-20T12:10:16;135.18;;;33.40;;
55493;SDS011;41355;50.390;19.096;2022-11-20T12:12:44;100.70;;;29.83;;
55493;SDS011;41355;50.390;19.096;2022-11-20T12:15:11;161.93;;;44.55;;
55493;SDS011;41355;50.390;19.096;2022-11-20T12:17:37;134.23;;;37.70;;
55493;SDS011;41355;50.390;19.096;2022-11-20T12:20:05;114.70;;;34.70;;
55493;SDS011;41355;50.390;19.096;2022-11-20T12:22:35;149.73;;;39.53;;
55493;SDS011;41355;50.390;19.096;2022-11-20T12:25:27;198.60;;;46.60;;
55493;SDS011;41355;50.390;19.096;2022-11-20T12:30:42;134.75;;;38.45;;
55493;SDS011;41355;50.390;19.096;2022-11-20T12:47:28;209.38;;;53.10;;
55493;SDS011;41355;50.390;19.096;2022-11-20T12:55:36;101.43;;;31.73;;
55493;SDS011;41355;50.390;19.096;2022-11-20T13:00:51;170.45;;;41.90;;
55493;SDS011;41355;50.390;19.096;2022-11-20T13:08:24;125.72;;;32.85;;
55493;SDS011;41355;50.390;19.096;2022-11-20T13:13:59;162.25;;;40.50;;
55493;SDS011;41355;50.390;19.096;2022-11-20T13:16:26;138.38;;;38.47;;
55493;SDS011;41355;50.390;19.096;2022-11-20T13:18:56;79.40;;;22.58;;
55493;SDS011;41355;50.390;19.096;2022-11-20T13:21:37;61.72;;;19.73;;
55493;SDS011;41355;50.390;19.096;2022-11-20T13:24:06;91.05;;;28.33;;
55493;SDS011;41355;50.390;19.096;2022-11-20T13:26:33;53.53;;;16.17;;
55493;SDS011;41355;50.390;19.096;2022-11-20T13:29:01;92.97;;;26.83;;
55493;SDS011;41355;50.390;19.096;2022-11-20T13:31:32;155.35;;;40.22;;
55493;SDS011;41355;50.390;19.096;2022-11-20T13:34:00;178.73;;;44.55;;
55493;SDS011;41355;50.390;19.096;2022-11-20T13:36:28;140.40;;;34.70;;
55493;SDS011;41355;50.390;19.096;2022-11-20T13:38:55;138.35;;;34.08;;
55493;SDS011;41355;50.390;19.096;2022-11-20T13:43:54;142.23;;;37.35;;
55493;SDS011;41355;50.390;19.096;2022-11-20T13:46:22;149.85;;;38.10;;
55493;SDS011;41355;50.390;19.096;2022-11-20T13:48:50;101.78;;;29.30;;
55493;SDS011;41355;50.390;19.096;2022-11-20T13:51:34;242.00;;;55.25;;
55493;SDS011;41355;50.390;19.096;2022-11-20T13:59:14;201.95;;;48.38;;
55493;SDS011;41355;50.390;19.096;2022-11-20T14:01:43;150.63;;;42.75;;
55493;SDS011;41355;50.390;19.096;2022-11-20T14:04:14;214.75;;;52.17;;
55493;SDS011;41355;50.390;19.096;2022-11-20T14:06:42;138.55;;;37.83;;
55493;SDS011;41355;50.390;19.096;2022-11-20T14:09:27;207.07;;;52.10;;
55493;SDS011;41355;50.390;19.096;2022-11-20T14:11:53;240.88;;;57.55;;
55493;SDS011;41355;50.390;19.096;2022-11-20T14:14:21;305.02;;;69.40;;
55493;SDS011;41355;50.390;19.096;2022-11-20T14:16:47;326.42;;;79.72;;
55493;SDS011;41355;50.390;19.096;2022-11-20T14:21:46;291.00;;;72.25;;
55493;SDS011;41355;50.390;19.096;2022-11-20T14:24:13;291.90;;;65.80;;
55493;SDS011;41355;50.390;19.096;2022-11-20T14:26:43;325.35;;;76.15;;
55493;SDS011;41355;50.390;19.096;2022-11-20T14:29:19;311.10;;;68.53;;
55493;SDS011;41355;50.390;19.096;2022-11-20T14:31:45;315.30;;;70.95;;
55493;SDS011;41355;50.390;19.096;2022-11-20T14:34:15;345.77;;;78.80;;
55493;SDS011;41355;50.390;19.096;2022-11-20T14:36:43;352.52;;;72.15;;
55493;SDS011;41355;50.390;19.096;2022-11-20T14:39:11;314.38;;;67.38;;
55493;SDS011;41355;50.390;19.096;2022-11-20T14:41:37;295.48;;;65.30;;
55493;SDS011;41355;50.390;19.096;2022-11-20T14:44:03;345.13;;;72.40;;
55493;SDS011;41355;50.390;19.096;2022-11-20T14:46:30;328.23;;;75.50;;
55493;SDS011;41355;50.390;19.096;2022-11-20T14:48:57;221.00;;;50.15;;
55493;SDS011;41355;50.390;19.096;2022-11-20T14:53:51;323.98;;;69.45;;
55493;SDS011;41355;50.390;19.096;2022-11-20T14:56:21;312.50;;;66.57;;
55493;SDS011;41355;50.390;19.096;2022-11-20T14:58:55;276.05;;;63.58;;
55493;SDS011;41355;50.390;19.096;2022-11-20T15:01:25;298.23;;;64.80;;
55493;SDS011;41355;50.390;19.096;2022-11-20T15:03:58;264.83;;;54.47;;
55493;SDS011;41355;50.390;19.096;2022-11-20T15:06:25;263.85;;;63.45;;
55493;SDS011;41355;50.390;19.096;2022-11-20T15:08:51;218.57;;;51.08;;
55493;SDS011;41355;50.390;19.096;2022-11-20T15:11:18;202.88;;;44.92;;
55493;SDS011;41355;50.390;19.096;2022-11-20T15:13:45;97.18;;;31.15;;
55493;SDS011;41355;50.390;19.096;2022-11-20T15:16:18;272.60;;;61.85;;
55493;SDS011;41355;50.390;19.096;2022-11-20T15:18:44;161.07;;;42.60;;
55493;SDS011;41355;50.390;19.096;2022-11-20T15:21:14;165.18;;;44.55;;
55493;SDS011;41355;50.390;19.096;2022-11-20T15:23:40;194.63;;;47.58;;
55493;SDS011;41355;50.390;19.096;2022-11-20T15:26:07;203.95;;;52.33;;
55493;SDS011;41355;50.390;19.096;2022-11-20T15:28:39;225.05;;;52.40;;
55493;SDS011;41355;50.390;19.096;2022-11-20T15:31:06;290.10;;;67.05;;
55493;SDS011;41355;50.390;19.096;2022-11-20T15:33:32;274.10;;;66.95;;
55493;SDS011;41355;50.390;19.096;2022-11-20T15:35:59;273.92;;;63.45;;
55493;SDS011;41355;50.390;19.096;2022-11-20T15:38:25;299.40;;;71.18;;
55493;SDS011;41355;50.390;19.096;2022-11-20T15:40:51;210.45;;;47.50;;
55493;SDS011;41355;50.390;19.096;2022-11-20T15:43:17;247.32;;;60.03;;
55493;SDS011;41355;50.390;19.096;2022-11-20T15:45:44;208.32;;;56.20;;
55493;SDS011;41355;50.390;19.096;2022-11-20T15:48:11;254.93;;;63.10;;
55493;SDS011;41355;50.390;19.096;2022-11-20T15:50:39;218.68;;;54.28;;
55493;SDS011;41355;50.390;19.096;2022-11-20T15:53:07;114.15;;;35.33;;
55493;SDS011;41355;50.390;19.096;2022-11-20T15:55:33;228.40;;;56.33;;
55493;SDS011;41355;50.390;19.096;2022-11-20T15:57:59;272.90;;;69.88;;
55493;SDS011;41355;50.390;19.096;2022-11-20T16:00:25;288.25;;;68.60;;
55493;SDS011;41355;50.390;19.096;2022-11-20T16:02:52;260.92;;;64.85;;